CST,Max TemperatureF,Mean TemperatureF,Min TemperatureF,Max Dew PointF,MeanDew PointF,Min DewpointF,Max Humidity, Mean Humidity, Min Humidity, Max Sea Level PressureIn, Mean Sea Level PressureIn, Min Sea Level PressureIn, Max VisibilityMiles, Mean VisibilityMiles, Min VisibilityMiles, Max Wind SpeedMPH, Mean Wind SpeedMPH, Max Gust SpeedMPH,PrecipitationIn, CloudCover, Events, WindDirDegrees
2013-2-1,19,5,-9,19,4,-13,100,95,78,30.25,30.06,29.91,10,10,10,20,9,24,0.00,,Snow,217
2013-2-2,32,21,10,32,18,10,100,100,100,30.10,30.03,29.92,10,9,0,36,13,47,0.43,,Rain-Snow,295
2013-2-3,26,17,8,27,18,9,100,100,93,30.12,29.94,29.78,10,10,10,23,13,36,0.00,,Snow,96
2013-2-4,24,14,6,25,15,7,100,100,86,30.02,29.88,29.71,10,10,10,17,10,18,0.00,,Rain-Snow,229
2013-2-5,32,28,23,32,28,23,100,100,100,30.00,29.87,29.67,10,10,7,20,13,28,0.00,,,296
2013-2-6,37,30,23,37,30,23,100,100,100,29.98,29.86,29.77,10,10,10,20,11,23,0.00,,,194
2013-2-7,26,22,19,27,24,19,100,100,100,30.23,30.11,29.95,10,6,0,17,12,21,0.00,,Fog,18
2013-2-8,26,22,17,27,23,18,100,100,100,30.25,30.14,29.98,10,6,0,25,12,33,0.00,,Fog-Snow,154
2013-2-9,33,30,26,34,30,27,100,100,100,29.98,29.84,29.66,10,8,2,23,17,32,0.02,,Rain,147
2013-2-10,32,28,23,32,29,23,100,100,100,29.65,29.43,29.27,10,4,0,34,18,41,7.32,,Rain-Snow,39
2013-2-11,23,20,15,23,19,16,100,100,100,30.04,29.94,29.66,10,8,1,36,24,44,1.35,,Rain-Snow,301
2013-2-12,26,20,15,27,21,16,100,97,80,30.01,29.89,29.83,10,10,10,16,11,20,0.00,0,,255
2013-2-13,37,30,23,37,30,23,100,100,93,29.83,29.69,29.60,10,10,10,24,11,30,0.00,4,,272
2013-2-14,30,18,6,30,21,7,100,96,74,30.24,29.99,29.73,10,9,1,26,16,34,1.22,4,Rain-Snow,329
2013-2-15,17,10,3,18,11,3,100,98,86,30.32,30.27,30.23,10,9,2,10,7,,0.39,3,Rain-Snow,321
2013-2-16,26,16,5,27,17,5,100,100,100,30.22,30.04,29.93,10,10,0,12,6,,0.00,5,Fog-Snow,169
2013-2-17,37,27,17,37,29,18,100,100,93,29.93,29.68,29.48,10,10,10,18,11,29,0.00,0,,177
2013-2-18,33,19,5,34,18,5,100,99,92,30.02,29.78,29.56,10,9,1,40,23,50,1.28,6,Rain-Snow,320
2013-2-19,6,0,-7,5,-4,-9,100,88,78,30.33,30.22,30.03,10,10,9,30,22,37,0.00,3,Rain-Snow,333
2013-2-20,15,3,-9,14,1,-11,100,90,78,30.35,30.27,30.20,10,10,10,16,10,20,0.00,4,,102
2013-2-21,19,12,6,18,12,7,100,97,86,30.24,30.12,29.97,10,9,2,21,13,25,0.85,5,Snow,86
2013-2-22,19,14,8,19,15,9,100,100,100,29.96,29.92,29.89,10,8,1,16,12,,2.12,5,Rain-Snow,342
2013-2-23,19,8,-4,19,8,-4,100,100,100,29.89,29.82,29.77,10,7,0,10,5,,0.00,3,Fog-Snow,120
2013-2-24,26,16,5,27,16,5,100,100,100,30.05,29.96,29.85,10,9,2,8,6,,0.00,1,,56
2013-2-25,24,19,14,25,21,14,100,100,100,30.07,30.02,29.95,10,6,0,12,5,,0.00,7,Fog-Snow,15
2013-2-26,24,19,14,25,20,14,100,100,100,29.98,29.93,29.89,10,3,0,16,9,22,0.00,8,Fog-Snow,59
2013-2-27,30,24,17,27,23,18,100,96,75,30.10,30.03,29.95,10,10,4,24,16,31,0.00,2,,336
2013-2-28,23,20,17,23,21,18,100,100,100,30.22,30.18,30.10,10,10,10,18,14,23,0.00,7,Rain-Snow,346